sensor_id;sensor_type;location;lat;lon;timestamp;P1;durP1;ratioP1;P2;durP2;ratioP2
35961;SDS011;22044;48.298;10.008;2022-12-16T00:00:39;80.17;;;40.10;;
35961;SDS011;22044;48.298;10.008;2022-12-16T00:03:25;76.77;;;38.10;;
35961;SDS011;22044;48.298;10.008;2022-12-16T00:06:12;82.57;;;42.80;;
35961;SDS011;22044;48.298;10.008;2022-12-16T00:08:57;86.37;;;43.40;;
35961;SDS011;22044;48.298;10.008;2022-12-16T00:11:43;87.73;;;42.60;;
35961;SDS011;22044;48.298;10.008;2022-12-16T00:14:29;90.33;;;45.07;;
35961;SDS011;22044;48.298;10.008;2022-12-16T00:17:14;91.37;;;42.87;;
35961;SDS011;22044;48.298;10.008;2022-12-16T00:20:00;90.67;;;44.00;;
35961;SDS011;22044;48.298;10.008;2022-12-16T00:22:48;83.03;;;44.53;;
35961;SDS011;22044;48.298;10.008;2022-12-16T00:25:33;89.37;;;43.30;;
35961;SDS011;22044;48.298;10.008;2022-12-16T00:28:19;88.83;;;45.23;;
35961;SDS011;22044;48.298;10.008;2022-12-16T00:31:05;87.75;;;49.85;;
35961;SDS011;22044;48.298;10.008;2022-12-16T00:33:54;81.37;;;42.07;;
35961;SDS011;22044;48.298;10.008;2022-12-16T00:36:40;77.03;;;39.03;;
35961;SDS011;22044;48.298;10.008;2022-12-16T00:39:27;71.87;;;39.10;;
35961;SDS011;22044;48.298;10.008;2022-12-16T00:42:13;74.70;;;39.57;;
35961;SDS011;22044;48.298;10.008;2022-12-16T00:44:58;74.60;;;38.63;;
35961;SDS011;22044;48.298;10.008;2022-12-16T00:47:44;70.13;;;38.53;;
35961;SDS011;22044;48.298;10.008;2022-12-16T00:50:30;68.83;;;37.23;;
35961;SDS011;22044;48.298;10.008;2022-12-16T00:53:15;68.23;;;37.93;;
35961;SDS011;22044;48.298;10.008;2022-12-16T00:56:04;69.97;;;37.77;;
35961;SDS011;22044;48.298;10.008;2022-12-16T00:58:52;72.43;;;37.93;;
35961;SDS011;22044;48.298;10.008;2022-12-16T01:01:37;69.73;;;39.23;;
35961;SDS011;22044;48.298;10.008;2022-12-16T01:04:23;65.13;;;35.73;;
35961;SDS011;22044;48.298;10.008;2022-12-16T01:07:09;72.83;;;38.60;;
35961;SDS011;22044;48.298;10.008;2022-12-16T01:09:55;72.67;;;37.13;;
35961;SDS011;22044;48.298;10.008;2022-12-16T01:12:42;69.00;;;35.87;;
35961;SDS011;22044;48.298;10.008;2022-12-16T01:15:27;66.13;;;36.00;;
35961;SDS011;22044;48.298;10.008;2022-12-16T01:18:13;61.67;;;34.97;;
35961;SDS011;22044;48.298;10.008;2022-12-16T01:21:01;60.37;;;33.80;;
35961;SDS011;22044;48.298;10.008;2022-12-16T01:23:47;60.20;;;34.27;;
35961;SDS011;22044;48.298;10.008;2022-12-16T01:26:32;56.23;;;32.37;;
35961;SDS011;22044;48.298;10.008;2022-12-16T01:29:19;56.37;;;33.67;;
35961;SDS011;22044;48.298;10.008;2022-12-16T01:32:05;51.80;;;31.93;;
35961;SDS011;22044;48.298;10.008;2022-12-16T01:34:51;55.73;;;32.70;;
35961;SDS011;22044;48.298;10.008;2022-12-16T01:37:38;55.27;;;32.93;;
35961;SDS011;22044;48.298;10.008;2022-12-16T01:40:24;53.00;;;31.20;;
35961;SDS011;22044;48.298;10.008;2022-12-16T01:43:10;64.03;;;34.73;;
35961;SDS011;22044;48.298;10.008;2022-12-16T01:45:59;56.43;;;32.57;;
35961;SDS011;22044;48.298;10.008;2022-12-16T01:48:51;57.43;;;33.50;;
35961;SDS011;22044;48.298;10.008;2022-12-16T01:51:39;53.77;;;32.27;;
35961;SDS011;22044;48.298;10.008;2022-12-16T01:54:28;55.47;;;32.17;;
35961;SDS011;22044;48.298;10.008;2022-12-16T01:57:20;56.53;;;32.10;;
35961;SDS011;22044;48.298;10.008;2022-12-16T02:00:08;52.43;;;31.57;;
35961;SDS011;22044;48.298;10.008;2022-12-16T02:03:00;53.07;;;32.00;;
35961;SDS011;22044;48.298;10.008;2022-12-16T02:05:46;56.33;;;31.50;;
35961;SDS011;22044;48.298;10.008;2022-12-16T02:08:33;53.63;;;31.53;;
35961;SDS011;22044;48.298;10.008;2022-12-16T02:11:26;54.90;;;31.83;;
35961;SDS011;22044;48.298;10.008;2022-12-16T02:14:25;52.17;;;33.10;;
35961;SDS011;22044;48.298;10.008;2022-12-16T02:17:24;58.10;;;34.93;;
35961;SDS011;22044;48.298;10.008;2022-12-16T02:20:34;61.90;;;34.47;;
35961;SDS011;22044;48.298;10.008;2022-12-16T02:30:47;62.33;;;35.20;;
35961;SDS011;22044;48.298;10.008;2022-12-16T02:33:49;59.07;;;33.57;;
35961;SDS011;22044;48.298;10.008;2022-12-16T02:36:50;57.33;;;32.20;;
35961;SDS011;22044;48.298;10.008;2022-12-16T02:39:44;52.43;;;31.60;;
35961;SDS011;22044;48.298;10.008;2022-12-16T02:42:37;54.57;;;30.40;;
35961;SDS011;22044;48.298;10.008;2022-12-16T02:45:29;53.23;;;31.33;;
35961;SDS011;22044;48.298;10.008;2022-12-16T02:48:17;48.20;;;29.73;;
35961;SDS011;22044;48.298;10.008;2022-12-16T02:51:02;44.70;;;28.23;;
35961;SDS011;22044;48.298;10.008;2022-12-16T02:53:48;47.27;;;28.70;;
35961;SDS011;22044;48.298;10.008;2022-12-16T02:56:39;53.50;;;31.13;;
35961;SDS011;22044;48.298;10.008;2022-12-16T02:59:35;53.07;;;31.33;;
35961;SDS011;22044;48.298;10.008;2022-12-16T03:02:29;52.63;;;31.90;;
35961;SDS011;22044;48.298;10.008;2022-12-16T03:05:20;62.30;;;34.33;;
35961;SDS011;22044;48.298;10.008;2022-12-16T03:08:10;63.50;;;35.57;;
35961;SDS011;22044;48.298;10.008;2022-12-16T03:10:59;64.07;;;36.10;;
35961;SDS011;22044;48.298;10.008;2022-12-16T03:13:48;67.07;;;34.93;;
35961;SDS011;22044;48.298;10.008;2022-12-16T03:16:36;71.80;;;35.40;;
35961;SDS011;22044;48.298;10.008;2022-12-16T03:19:22;72.17;;;37.17;;
35961;SDS011;22044;48.298;10.008;2022-12-16T03:22:12;75.00;;;37.70;;
35961;SDS011;22044;48.298;10.008;2022-12-16T03:25:02;73.97;;;37.20;;
35961;SDS011;22044;48.298;10.008;2022-12-16T03:27:50;70.17;;;35.20;;
35961;SDS011;22044;48.298;10.008;2022-12-16T03:30:43;67.33;;;34.73;;
35961;SDS011;22044;48.298;10.008;2022-12-16T03:33:34;56.77;;;32.67;;
35961;SDS011;22044;48.298;10.008;2022-12-16T03:36:23;58.03;;;32.23;;
35961;SDS011;22044;48.298;10.008;2022-12-16T03:39:15;66.03;;;33.13;;
35961;SDS011;22044;48.298;10.008;2022-12-16T03:42:03;62.97;;;33.83;;
35961;SDS011;22044;48.298;10.008;2022-12-16T03:44:50;67.30;;;35.50;;
35961;SDS011;22044;48.298;10.008;2022-12-16T03:47:36;66.77;;;35.53;;
35961;SDS011;22044;48.298;10.008;2022-12-16T03:50:22;71.77;;;35.70;;
35961;SDS011;22044;48.298;10.008;2022-12-16T03:53:11;68.97;;;36.00;;
35961;SDS011;22044;48.298;10.008;2022-12-16T03:55:58;66.00;;;36.60;;
35961;SDS011;22044;48.298;10.008;2022-12-16T03:58:43;62.47;;;33.00;;
35961;SDS011;22044;48.298;10.008;2022-12-16T04:01:30;58.63;;;32.93;;
35961;SDS011;22044;48.298;10.008;2022-12-16T04:04:16;60.23;;;33.10;;
35961;SDS011;22044;48.298;10.008;2022-12-16T04:07:01;58.30;;;31.57;;
35961;SDS011;22044;48.298;10.008;2022-12-16T04:10:07;58.67;;;32.67;;
35961;SDS011;22044;48.298;10.008;2022-12-16T04:12:54;56.33;;;32.80;;
35961;SDS011;22044;48.298;10.008;2022-12-16T04:15:57;54.53;;;32.00;;
35961;SDS011;22044;48.298;10.008;2022-12-16T04:19:00;59.90;;;34.30;;
35961;SDS011;22044;48.298;10.008;2022-12-16T04:22:03;59.50;;;34.30;;
35961;SDS011;22044;48.298;10.008;2022-12-16T04:25:19;63.63;;;35.17;;
35961;SDS011;22044;48.298;10.008;2022-12-16T04:28:07;59.63;;;33.57;;
35961;SDS011;22044;48.298;10.008;2022-12-16T04:30:53;56.73;;;31.53;;
35961;SDS011;22044;48.298;10.008;2022-12-16T04:33:39;53.43;;;30.47;;
35961;SDS011;22044;48.298;10.008;2022-12-16T04:36:42;51.03;;;30.03;;
35961;SDS011;22044;48.298;10.008;2022-12-16T04:39:46;53.87;;;31.77;;
35961;SDS011;22044;48.298;10.008;2022-12-16T04:42:49;58.10;;;33.07;;
35961;SDS011;22044;48.298;10.008;2022-12-16T04:45:58;60.90;;;32.17;;
35961;SDS011;22044;48.298;10.008;2022-12-16T04:49:02;59.80;;;32.73;;
35961;SDS011;22044;48.298;10.008;2022-12-16T04:52:05;57.10;;;33.60;;
35961;SDS011;22044;48.298;10.008;2022-12-16T04:55:08;62.93;;;34.67;;
35961;SDS011;22044;48.298;10.008;2022-12-16T04:58:20;62.80;;;35.73;;
35961;SDS011;22044;48.298;10.008;2022-12-16T05:01:24;65.63;;;33.20;;
35961;SDS011;22044;48.298;10.008;2022-12-16T05:04:24;66.87;;;34.73;;
35961;SDS011;22044;48.298;10.008;2022-12-16T05:07:27;63.03;;;33.73;;
35961;SDS011;22044;48.298;10.008;2022-12-16T05:10:30;62.97;;;34.97;;
35961;SDS011;22044;48.298;10.008;2022-12-16T05:13:33;58.53;;;33.53;;
35961;SDS011;22044;48.298;10.008;2022-12-16T05:16:37;61.50;;;33.57;;
35961;SDS011;22044;48.298;10.008;2022-12-16T05:19:40;63.87;;;34.07;;
35961;SDS011;22044;48.298;10.008;2022-12-16T05:22:44;61.40;;;34.40;;
35961;SDS011;22044;48.298;10.008;2022-12-16T05:25:47;61.50;;;35.43;;
35961;SDS011;22044;48.298;10.008;2022-12-16T05:28:50;67.77;;;34.53;;
35961;SDS011;22044;48.298;10.008;2022-12-16T05:31:55;61.43;;;35.23;;
35961;SDS011;22044;48.298;10.008;2022-12-16T05:34:58;64.53;;;35.20;;
35961;SDS011;22044;48.298;10.008;2022-12-16T05:38:01;62.37;;;33.40;;
35961;SDS011;22044;48.298;10.008;2022-12-16T05:41:04;64.00;;;35.30;;
35961;SDS011;22044;48.298;10.008;2022-12-16T05:44:07;60.50;;;34.00;;
35961;SDS011;22044;48.298;10.008;2022-12-16T05:47:12;56.43;;;33.57;;
35961;SDS011;22044;48.298;10.008;2022-12-16T05:50:15;60.37;;;33.70;;
35961;SDS011;22044;48.298;10.008;2022-12-16T05:53:25;57.73;;;31.90;;
35961;SDS011;22044;48.298;10.008;2022-12-16T05:56:28;58.57;;;33.43;;
35961;SDS011;22044;48.298;10.008;2022-12-16T05:59:31;60.07;;;33.30;;
35961;SDS011;22044;48.298;10.008;2022-12-16T06:02:35;57.43;;;34.33;;
35961;SDS011;22044;48.298;10.008;2022-12-16T06:05:39;59.97;;;34.23;;
35961;SDS011;22044;48.298;10.008;2022-12-16T06:08:43;58.33;;;32.93;;
35961;SDS011;22044;48.298;10.008;2022-12-16T06:11:46;56.50;;;32.73;;
35961;SDS011;22044;48.298;10.008;2022-12-16T06:14:49;58.30;;;33.57;;
35961;SDS011;22044;48.298;10.008;2022-12-16T06:17:54;58.27;;;33.63;;
35961;SDS011;22044;48.298;10.008;2022-12-16T06:20:57;57.20;;;32.40;;
35961;SDS011;22044;48.298;10.008;2022-12-16T06:24:00;60.80;;;32.73;;
35961;SDS011;22044;48.298;10.008;2022-12-16T06:27:03;59.50;;;34.23;;
35961;SDS011;22044;48.298;10.008;2022-12-16T06:30:07;57.37;;;34.00;;
35961;SDS011;22044;48.298;10.008;2022-12-16T06:33:12;59.63;;;33.87;;
35961;SDS011;22044;48.298;10.008;2022-12-16T06:36:15;55.20;;;34.03;;
35961;SDS011;22044;48.298;10.008;2022-12-16T06:39:18;58.50;;;32.73;;
35961;SDS011;22044;48.298;10.008;2022-12-16T06:42:21;55.83;;;32.43;;
35961;SDS011;22044;48.298;10.008;2022-12-16T06:45:24;55.07;;;33.07;;
35961;SDS011;22044;48.298;10.008;2022-12-16T06:48:29;55.83;;;31.07;;
35961;SDS011;22044;48.298;10.008;2022-12-16T06:51:33;57.30;;;31.83;;
35961;SDS011;22044;48.298;10.008;2022-12-16T06:54:36;60.93;;;33.33;;
35961;SDS011;22044;48.298;10.008;2022-12-16T06:57:39;59.20;;;39.85;;
35961;SDS011;22044;48.298;10.008;2022-12-16T07:00:42;57.50;;;34.40;;
35961;SDS011;22044;48.298;10.008;2022-12-16T07:03:48;57.10;;;32.53;;
35961;SDS011;22044;48.298;10.008;2022-12-16T07:06:59;49.27;;;30.57;;
35961;SDS011;22044;48.298;10.008;2022-12-16T07:10:02;53.33;;;32.10;;
35961;SDS011;22044;48.298;10.008;2022-12-16T07:13:06;58.47;;;32.47;;
35961;SDS011;22044;48.298;10.008;2022-12-16T07:16:09;55.60;;;31.67;;
35961;SDS011;22044;48.298;10.008;2022-12-16T07:19:13;52.67;;;31.03;;
35961;SDS011;22044;48.298;10.008;2022-12-16T07:22:13;57.53;;;32.73;;
35961;SDS011;22044;48.298;10.008;2022-12-16T07:25:17;58.43;;;32.77;;
35961;SDS011;22044;48.298;10.008;2022-12-16T07:28:19;60.70;;;33.10;;
35961;SDS011;22044;48.298;10.008;2022-12-16T07:31:23;52.83;;;31.97;;
35961;SDS011;22044;48.298;10.008;2022-12-16T07:34:27;57.13;;;32.83;;
35961;SDS011;22044;48.298;10.008;2022-12-16T07:37:31;59.50;;;32.63;;
35961;SDS011;22044;48.298;10.008;2022-12-16T07:40:33;52.43;;;32.33;;
35961;SDS011;22044;48.298;10.008;2022-12-16T07:43:45;55.40;;;33.57;;
35961;SDS011;22044;48.298;10.008;2022-12-16T07:46:48;57.47;;;34.63;;
35961;SDS011;22044;48.298;10.008;2022-12-16T07:49:52;54.20;;;32.80;;
35961;SDS011;22044;48.298;10.008;2022-12-16T07:52:56;53.57;;;32.23;;
35961;SDS011;22044;48.298;10.008;2022-12-16T07:56:00;51.53;;;31.77;;
35961;SDS011;22044;48.298;10.008;2022-12-16T07:59:03;49.47;;;31.30;;
35961;SDS011;22044;48.298;10.008;2022-12-16T08:02:07;55.60;;;32.20;;
35961;SDS011;22044;48.298;10.008;2022-12-16T08:05:12;58.87;;;32.27;;
35961;SDS011;22044;48.298;10.008;2022-12-16T08:08:16;55.93;;;33.73;;
35961;SDS011;22044;48.298;10.008;2022-12-16T08:11:18;53.83;;;33.60;;
35961;SDS011;22044;48.298;10.008;2022-12-16T08:14:22;65.13;;;34.90;;
35961;SDS011;22044;48.298;10.008;2022-12-16T08:17:25;53.67;;;33.10;;
35961;SDS011;22044;48.298;10.008;2022-12-16T08:20:29;53.97;;;31.13;;
35961;SDS011;22044;48.298;10.008;2022-12-16T08:23:32;50.67;;;32.27;;
35961;SDS011;22044;48.298;10.008;2022-12-16T08:26:35;55.53;;;32.37;;
35961;SDS011;22044;48.298;10.008;2022-12-16T08:29:38;57.60;;;33.43;;
35961;SDS011;22044;48.298;10.008;2022-12-16T08:32:41;53.00;;;31.57;;
35961;SDS011;22044;48.298;10.008;2022-12-16T08:35:45;51.00;;;30.67;;
35961;SDS011;22044;48.298;10.008;2022-12-16T08:38:49;52.60;;;30.30;;
35961;SDS011;22044;48.298;10.008;2022-12-16T08:41:52;53.47;;;32.27;;
35961;SDS011;22044;48.298;10.008;2022-12-16T08:44:55;47.40;;;30.37;;
35961;SDS011;22044;48.298;10.008;2022-12-16T08:47:58;51.70;;;30.93;;
35961;SDS011;22044;48.298;10.008;2022-12-16T08:51:03;45.13;;;28.23;;
35961;SDS011;22044;48.298;10.008;2022-12-16T08:54:08;46.40;;;29.70;;
35961;SDS011;22044;48.298;10.008;2022-12-16T08:57:11;43.13;;;28.60;;
35961;SDS011;22044;48.298;10.008;2022-12-16T09:00:14;43.00;;;27.67;;
35961;SDS011;22044;48.298;10.008;2022-12-16T09:03:18;42.70;;;27.23;;
35961;SDS011;22044;48.298;10.008;2022-12-16T09:06:22;39.30;;;25.77;;
35961;SDS011;22044;48.298;10.008;2022-12-16T09:09:26;38.27;;;25.60;;
35961;SDS011;22044;48.298;10.008;2022-12-16T09:12:29;42.67;;;27.77;;
35961;SDS011;22044;48.298;10.008;2022-12-16T09:15:32;40.33;;;25.90;;
35961;SDS011;22044;48.298;10.008;2022-12-16T09:18:35;42.77;;;27.67;;
35961;SDS011;22044;48.298;10.008;2022-12-16T09:21:44;41.77;;;27.07;;
35961;SDS011;22044;48.298;10.008;2022-12-16T09:24:47;40.80;;;27.03;;
35961;SDS011;22044;48.298;10.008;2022-12-16T09:27:50;47.00;;;27.53;;
35961;SDS011;22044;48.298;10.008;2022-12-16T09:30:54;43.47;;;27.23;;
35961;SDS011;22044;48.298;10.008;2022-12-16T09:33:57;43.13;;;28.40;;
35961;SDS011;22044;48.298;10.008;2022-12-16T09:37:01;39.93;;;24.97;;
35961;SDS011;22044;48.298;10.008;2022-12-16T09:40:03;40.67;;;25.63;;
35961;SDS011;22044;48.298;10.008;2022-12-16T09:43:12;40.93;;;26.37;;
35961;SDS011;22044;48.298;10.008;2022-12-16T09:46:28;41.13;;;26.53;;
35961;SDS011;22044;48.298;10.008;2022-12-16T09:49:40;41.70;;;25.17;;
35961;SDS011;22044;48.298;10.008;2022-12-16T09:52:56;41.17;;;26.63;;
35961;SDS011;22044;48.298;10.008;2022-12-16T09:56:02;39.83;;;25.80;;
35961;SDS011;22044;48.298;10.008;2022-12-16T09:59:09;39.43;;;25.80;;
35961;SDS011;22044;48.298;10.008;2022-12-16T10:02:16;40.10;;;25.07;;
35961;SDS011;22044;48.298;10.008;2022-12-16T10:05:21;39.87;;;25.50;;
35961;SDS011;22044;48.298;10.008;2022-12-16T10:08:33;42.33;;;27.27;;
35961;SDS011;22044;48.298;10.008;2022-12-16T10:11:44;41.63;;;26.53;;
35961;SDS011;22044;48.298;10.008;2022-12-16T10:14:57;47.53;;;27.93;;
35961;SDS011;22044;48.298;10.008;2022-12-16T10:18:10;38.63;;;26.07;;
35961;SDS011;22044;48.298;10.008;2022-12-16T10:21:24;40.00;;;25.57;;
35961;SDS011;22044;48.298;10.008;2022-12-16T10:24:43;41.17;;;27.07;;
35961;SDS011;22044;48.298;10.008;2022-12-16T10:27:53;45.37;;;27.43;;
35961;SDS011;22044;48.298;10.008;2022-12-16T10:31:02;39.97;;;26.23;;
35961;SDS011;22044;48.298;10.008;2022-12-16T10:34:13;40.30;;;25.93;;
35961;SDS011;22044;48.298;10.008;2022-12-16T10:37:19;37.57;;;25.87;;
35961;SDS011;22044;48.298;10.008;2022-12-16T10:40:31;37.90;;;25.77;;
35961;SDS011;22044;48.298;10.008;2022-12-16T10:43:36;40.80;;;26.67;;
35961;SDS011;22044;48.298;10.008;2022-12-16T10:46:44;41.93;;;26.83;;
35961;SDS011;22044;48.298;10.008;2022-12-16T10:49:47;39.03;;;25.57;;
35961;SDS011;22044;48.298;10.008;2022-12-16T10:52:54;36.13;;;25.13;;
35961;SDS011;22044;48.298;10.008;2022-12-16T10:56:02;37.37;;;25.13;;
35961;SDS011;22044;48.298;10.008;2022-12-16T10:59:19;34.77;;;24.77;;
35961;SDS011;22044;48.298;10.008;2022-12-16T11:02:23;37.17;;;25.10;;
35961;SDS011;22044;48.298;10.008;2022-12-16T11:05:29;38.23;;;24.23;;
35961;SDS011;22044;48.298;10.008;2022-12-16T11:08:34;36.63;;;24.70;;
35961;SDS011;22044;48.298;10.008;2022-12-16T11:11:39;37.43;;;23.50;;
35961;SDS011;22044;48.298;10.008;2022-12-16T11:14:42;38.17;;;24.70;;
35961;SDS011;22044;48.298;10.008;2022-12-16T11:18:00;37.80;;;24.73;;
35961;SDS011;22044;48.298;10.008;2022-12-16T11:21:05;36.43;;;24.37;;
35961;SDS011;22044;48.298;10.008;2022-12-16T11:24:13;43.03;;;25.90;;
35961;SDS011;22044;48.298;10.008;2022-12-16T11:27:23;41.40;;;23.80;;
35961;SDS011;22044;48.298;10.008;2022-12-16T11:30:28;37.70;;;25.30;;
35961;SDS011;22044;48.298;10.008;2022-12-16T11:33:31;39.47;;;25.30;;
35961;SDS011;22044;48.298;10.008;2022-12-16T11:36:35;38.00;;;24.87;;
35961;SDS011;22044;48.298;10.008;2022-12-16T11:39:40;39.77;;;26.07;;
35961;SDS011;22044;48.298;10.008;2022-12-16T11:42:45;45.47;;;26.20;;
35961;SDS011;22044;48.298;10.008;2022-12-16T11:45:48;40.60;;;25.03;;
35961;SDS011;22044;48.298;10.008;2022-12-16T11:48:55;42.80;;;27.07;;
35961;SDS011;22044;48.298;10.008;2022-12-16T11:52:01;40.33;;;26.00;;
35961;SDS011;22044;48.298;10.008;2022-12-16T11:55:16;44.43;;;26.90;;
35961;SDS011;22044;48.298;10.008;2022-12-16T12:01:57;39.27;;;25.90;;
35961;SDS011;22044;48.298;10.008;2022-12-16T12:05:02;41.33;;;25.23;;
35961;SDS011;22044;48.298;10.008;2022-12-16T12:08:07;38.77;;;25.87;;
35961;SDS011;22044;48.298;10.008;2022-12-16T12:11:15;44.23;;;27.60;;
35961;SDS011;22044;48.298;10.008;2022-12-16T12:14:26;45.37;;;26.17;;
35961;SDS011;22044;48.298;10.008;2022-12-16T12:17:37;45.63;;;28.07;;
35961;SDS011;22044;48.298;10.008;2022-12-16T12:20:49;39.33;;;24.67;;
35961;SDS011;22044;48.298;10.008;2022-12-16T12:24:00;46.80;;;26.70;;
35961;SDS011;22044;48.298;10.008;2022-12-16T12:27:13;46.17;;;27.67;;
35961;SDS011;22044;48.298;10.008;2022-12-16T12:30:22;40.63;;;26.23;;
35961;SDS011;22044;48.298;10.008;2022-12-16T12:33:29;44.53;;;27.23;;
35961;SDS011;22044;48.298;10.008;2022-12-16T12:36:37;45.20;;;26.57;;
35961;SDS011;22044;48.298;10.008;2022-12-16T12:39:50;46.47;;;26.93;;
35961;SDS011;22044;48.298;10.008;2022-12-16T12:42:58;46.80;;;26.10;;
35961;SDS011;22044;48.298;10.008;2022-12-16T12:46:10;45.03;;;26.93;;
35961;SDS011;22044;48.298;10.008;2022-12-16T12:49:24;42.07;;;26.63;;
35961;SDS011;22044;48.298;10.008;2022-12-16T12:52:41;42.97;;;27.07;;
35961;SDS011;22044;48.298;10.008;2022-12-16T12:56:04;45.97;;;26.57;;
35961;SDS011;22044;48.298;10.008;2022-12-16T12:59:18;43.00;;;25.97;;
35961;SDS011;22044;48.298;10.008;2022-12-16T13:02:26;38.57;;;24.47;;
35961;SDS011;22044;48.298;10.008;2022-12-16T13:05:45;41.53;;;25.70;;
35961;SDS011;22044;48.298;10.008;2022-12-16T13:08:54;41.57;;;24.70;;
35961;SDS011;22044;48.298;10.008;2022-12-16T13:15:34;37.33;;;23.83;;
35961;SDS011;22044;48.298;10.008;2022-12-16T13:18:37;38.53;;;20.93;;
35961;SDS011;22044;48.298;10.008;2022-12-16T13:21:47;37.80;;;24.13;;
35961;SDS011;22044;48.298;10.008;2022-12-16T13:24:50;35.77;;;22.20;;
35961;SDS011;22044;48.298;10.008;2022-12-16T13:27:54;33.40;;;21.67;;
35961;SDS011;22044;48.298;10.008;2022-12-16T13:30:59;36.80;;;21.73;;
35961;SDS011;22044;48.298;10.008;2022-12-16T13:34:06;34.33;;;20.97;;
35961;SDS011;22044;48.298;10.008;2022-12-16T13:37:25;37.63;;;21.33;;
35961;SDS011;22044;48.298;10.008;2022-12-16T13:40:28;35.97;;;21.37;;
35961;SDS011;22044;48.298;10.008;2022-12-16T13:43:51;35.73;;;21.23;;
35961;SDS011;22044;48.298;10.008;2022-12-16T13:46:55;29.67;;;18.43;;
35961;SDS011;22044;48.298;10.008;2022-12-16T13:50:04;28.83;;;18.07;;
35961;SDS011;22044;48.298;10.008;2022-12-16T13:53:39;33.13;;;19.97;;
35961;SDS011;22044;48.298;10.008;2022-12-16T13:56:47;30.33;;;19.10;;
35961;SDS011;22044;48.298;10.008;2022-12-16T13:59:51;28.80;;;18.13;;
35961;SDS011;22044;48.298;10.008;2022-12-16T14:02:56;28.87;;;17.40;;
35961;SDS011;22044;48.298;10.008;2022-12-16T14:05:59;33.63;;;18.43;;
35961;SDS011;22044;48.298;10.008;2022-12-16T14:09:10;26.60;;;17.50;;
35961;SDS011;22044;48.298;10.008;2022-12-16T14:12:38;29.23;;;19.20;;
35961;SDS011;22044;48.298;10.008;2022-12-16T14:15:52;29.57;;;18.80;;
35961;SDS011;22044;48.298;10.008;2022-12-16T14:19:04;31.10;;;18.87;;
35961;SDS011;22044;48.298;10.008;2022-12-16T14:22:28;29.13;;;17.10;;
35961;SDS011;22044;48.298;10.008;2022-12-16T14:25:41;29.27;;;18.03;;
35961;SDS011;22044;48.298;10.008;2022-12-16T14:28:46;31.33;;;19.87;;
35961;SDS011;22044;48.298;10.008;2022-12-16T14:31:58;31.90;;;19.83;;
35961;SDS011;22044;48.298;10.008;2022-12-16T14:35:03;35.00;;;21.27;;
35961;SDS011;22044;48.298;10.008;2022-12-16T14:38:23;33.73;;;19.63;;
35961;SDS011;22044;48.298;10.008;2022-12-16T14:41:31;30.77;;;20.83;;
35961;SDS011;22044;48.298;10.008;2022-12-16T14:44:34;34.57;;;21.47;;
35961;SDS011;22044;48.298;10.008;2022-12-16T14:47:41;35.87;;;21.97;;
35961;SDS011;22044;48.298;10.008;2022-12-16T14:50:44;34.50;;;20.57;;
35961;SDS011;22044;48.298;10.008;2022-12-16T14:53:47;31.93;;;20.83;;
35961;SDS011;22044;48.298;10.008;2022-12-16T14:56:56;33.37;;;21.43;;
35961;SDS011;22044;48.298;10.008;2022-12-16T15:00:00;35.80;;;20.67;;
35961;SDS011;22044;48.298;10.008;2022-12-16T15:03:09;36.43;;;22.53;;
35961;SDS011;22044;48.298;10.008;2022-12-16T15:06:21;35.73;;;21.67;;
35961;SDS011;22044;48.298;10.008;2022-12-16T15:09:28;37.60;;;22.00;;
35961;SDS011;22044;48.298;10.008;2022-12-16T15:12:37;36.60;;;20.77;;
35961;SDS011;22044;48.298;10.008;2022-12-16T15:15:43;37.10;;;21.17;;
35961;SDS011;22044;48.298;10.008;2022-12-16T15:18:49;36.93;;;21.00;;
35961;SDS011;22044;48.298;10.008;2022-12-16T15:21:59;35.63;;;20.93;;
35961;SDS011;22044;48.298;10.008;2022-12-16T15:25:02;34.80;;;21.87;;
35961;SDS011;22044;48.298;10.008;2022-12-16T15:31:30;32.77;;;20.17;;
35961;SDS011;22044;48.298;10.008;2022-12-16T15:34:36;36.17;;;21.60;;
35961;SDS011;22044;48.298;10.008;2022-12-16T15:37:47;34.30;;;20.93;;
35961;SDS011;22044;48.298;10.008;2022-12-16T15:40:50;34.90;;;23.93;;
35961;SDS011;22044;48.298;10.008;2022-12-16T15:43:55;34.93;;;22.00;;
35961;SDS011;22044;48.298;10.008;2022-12-16T15:46:58;37.00;;;20.87;;
35961;SDS011;22044;48.298;10.008;2022-12-16T15:50:02;33.00;;;20.77;;
35961;SDS011;22044;48.298;10.008;2022-12-16T15:53:24;32.87;;;20.83;;
35961;SDS011;22044;48.298;10.008;2022-12-16T15:56:32;33.83;;;20.80;;
35961;SDS011;22044;48.298;10.008;2022-12-16T15:59:53;33.53;;;21.23;;
35961;SDS011;22044;48.298;10.008;2022-12-16T16:02:58;32.17;;;20.43;;
35961;SDS011;22044;48.298;10.008;2022-12-16T16:06:01;36.43;;;21.53;;
35961;SDS011;22044;48.298;10.008;2022-12-16T16:09:12;34.10;;;21.20;;
35961;SDS011;22044;48.298;10.008;2022-12-16T16:12:16;36.63;;;20.53;;
35961;SDS011;22044;48.298;10.008;2022-12-16T16:15:21;32.67;;;20.50;;
35961;SDS011;22044;48.298;10.008;2022-12-16T16:18:24;34.63;;;21.53;;
35961;SDS011;22044;48.298;10.008;2022-12-16T16:21:27;36.27;;;21.07;;
35961;SDS011;22044;48.298;10.008;2022-12-16T16:24:31;35.53;;;20.67;;
35961;SDS011;22044;48.298;10.008;2022-12-16T16:27:34;31.93;;;20.53;;
35961;SDS011;22044;48.298;10.008;2022-12-16T16:30:38;32.20;;;21.03;;
35961;SDS011;22044;48.298;10.008;2022-12-16T16:33:41;38.30;;;23.80;;
35961;SDS011;22044;48.298;10.008;2022-12-16T16:36:44;33.07;;;20.70;;
35961;SDS011;22044;48.298;10.008;2022-12-16T16:39:49;31.13;;;20.10;;
35961;SDS011;22044;48.298;10.008;2022-12-16T16:42:52;36.20;;;22.00;;
35961;SDS011;22044;48.298;10.008;2022-12-16T16:45:56;34.53;;;21.63;;
35961;SDS011;22044;48.298;10.008;2022-12-16T16:48:59;31.80;;;18.60;;
35961;SDS011;22044;48.298;10.008;2022-12-16T16:52:02;31.97;;;19.53;;
35961;SDS011;22044;48.298;10.008;2022-12-16T16:55:06;29.27;;;18.97;;
35961;SDS011;22044;48.298;10.008;2022-12-16T16:58:15;31.57;;;18.70;;
35961;SDS011;22044;48.298;10.008;2022-12-16T17:01:24;32.13;;;19.80;;
35961;SDS011;22044;48.298;10.008;2022-12-16T17:04:28;27.23;;;18.60;;
35961;SDS011;22044;48.298;10.008;2022-12-16T17:07:31;32.53;;;19.43;;
35961;SDS011;22044;48.298;10.008;2022-12-16T17:10:34;32.60;;;19.53;;
35961;SDS011;22044;48.298;10.008;2022-12-16T17:13:37;33.43;;;20.07;;
35961;SDS011;22044;48.298;10.008;2022-12-16T17:16:42;28.43;;;18.83;;
35961;SDS011;22044;48.298;10.008;2022-12-16T17:19:45;31.90;;;19.77;;
35961;SDS011;22044;48.298;10.008;2022-12-16T17:22:48;28.77;;;18.63;;
35961;SDS011;22044;48.298;10.008;2022-12-16T17:25:51;30.10;;;19.23;;
35961;SDS011;22044;48.298;10.008;2022-12-16T17:28:51;30.10;;;18.73;;
35961;SDS011;22044;48.298;10.008;2022-12-16T17:31:55;29.07;;;18.03;;
35961;SDS011;22044;48.298;10.008;2022-12-16T17:34:58;35.37;;;19.03;;
35961;SDS011;22044;48.298;10.008;2022-12-16T17:38:01;30.23;;;19.13;;
35961;SDS011;22044;48.298;10.008;2022-12-16T17:41:04;28.80;;;17.97;;
35961;SDS011;22044;48.298;10.008;2022-12-16T17:44:07;29.77;;;19.63;;